»·PEaware :: N172SP KSAN-KSAN

N172SP :: KSAN-KSAN

FLIGHT INFORMATION

Flight Status: Arrived
Operator: Privately registered:
United States
More flights under this callsign
Pilot: Carson T. (20437)
Aircraft: CESSNA 172 SKYHAWK
(C172)
More flights by this aircraft type
Origin: KSAN San Diego Intl-Lindbergh
United States
Destination: KSAN San Diego Intl-Lindbergh
United States
More flights between these airports :: More routes between these airports
Route: +
File this flight plan on PilotEdge
Remarks:
Altitude:
(Current/Filed)
0ft
Speed:
(Current/Filed)
0kts
Departed: 05-Nov-18 01:52 PM
Arrived: 05-Nov-18 03:15 PM
Distance/Time
Traveled:
1nm/1:23
Distance/Time
To Go:
Arrived

Flight Plot

Page will automatically refresh every two minutes.


Map Options




Map Legend


Flown Route
Filed Route
Departure Airport
Arrival Airport
Navaid (VOR, NDB)
Fix

Horizontal Profiles

Position Reports

Time Latitude Longitude Heading Altitude Ground
Speed
05-Nov-18 13:49 32.732319 -117.176260 193 23ft 0kts
05-Nov-18 13:50 32.732319 -117.176260 193 23ft 0kts
05-Nov-18 13:51 32.732319 -117.176260 193 23ft 0kts
05-Nov-18 13:52 32.731119 -117.175775 121 21ft 11kts
05-Nov-18 13:53 32.730886 -117.175462 141 21ft 0kts
05-Nov-18 13:54 32.730886 -117.175462 141 21ft 0kts
05-Nov-18 13:55 32.732063 -117.183027 285 59ft 79kts
05-Nov-18 13:56 32.740803 -117.209559 316 711ft 95kts
05-Nov-18 13:57 32.763374 -117.227855 320 1351ft 100kts
05-Nov-18 13:58 32.788417 -117.249644 321 1586ft 125kts
05-Nov-18 13:59 32.817326 -117.274701 323 1569ft 128kts
05-Nov-18 14:00 32.847263 -117.298533 324 1527ft 129kts
05-Nov-18 14:01 32.876201 -117.323533 321 1515ft 129kts
05-Nov-18 14:02 32.905221 -117.347957 322 1638ft 122kts
05-Nov-18 14:03 32.930492 -117.368992 322 2106ft 115kts
05-Nov-18 14:04 32.959391 -117.377842 11 2593ft 116kts
05-Nov-18 14:05 32.987078 -117.362341 74 3076ft 115kts
05-Nov-18 14:06 32.992580 -117.325819 73 3571ft 113kts
05-Nov-18 14:07 33.002164 -117.290389 73 4070ft 111kts
05-Nov-18 14:08 33.011596 -117.255393 72 4569ft 111kts
05-Nov-18 14:09 33.020941 -117.220447 72 5068ft 110kts
05-Nov-18 14:10 33.030178 -117.185500 72 5525ft 115kts
05-Nov-18 14:11 33.040791 -117.144831 73 5508ft 133kts
05-Nov-18 14:12 33.051890 -117.102376 72 5509ft 134kts
05-Nov-18 14:13 33.063038 -117.059856 72 5511ft 133kts
05-Nov-18 14:14 33.074131 -117.017645 72 5514ft 133kts
05-Nov-18 14:15 33.082492 -116.974551 86 5516ft 133kts
05-Nov-18 14:16 33.085805 -116.930257 85 5519ft 134kts
05-Nov-18 14:17 33.089376 -116.885790 85 5522ft 135kts
05-Nov-18 14:18 33.093002 -116.841171 85 5523ft 135kts
05-Nov-18 14:19 33.096634 -116.796464 85 5524ft 135kts
05-Nov-18 14:20 33.100235 -116.751995 85 5523ft 135kts
05-Nov-18 14:21 33.103762 -116.708783 85 5522ft 135kts
05-Nov-18 14:22 33.107519 -116.663963 85 5523ft 135kts
05-Nov-18 14:23 33.102279 -116.620265 102 5523ft 134kts
05-Nov-18 14:24 33.096144 -116.575989 100 5419ft 139kts
05-Nov-18 14:25 33.098448 -116.530701 82 5245ft 132kts
05-Nov-18 14:26 33.104143 -116.485626 82 4821ft 142kts
05-Nov-18 14:27 33.110092 -116.438937 82 4327ft 143kts
05-Nov-18 14:28 33.115989 -116.392543 82 3834ft 142kts
05-Nov-18 14:29 33.121828 -116.346443 81 3341ft 141kts
05-Nov-18 14:30 33.127608 -116.300706 80 2836ft 138kts
05-Nov-18 14:31 33.132716 -116.256143 82 2036ft 126kts
05-Nov-18 14:32 33.132483 -116.218360 95 1439ft 110kts
05-Nov-18 14:33 33.131977 -116.180172 86 1217ft 125kts
05-Nov-18 14:34 33.143830 -116.142626 52 1050ft 125kts
05-Nov-18 14:35 33.165757 -116.152910 33 1053ft 80kts
05-Nov-18 14:36 33.155091 -116.137130 145 230ft 65kts
05-Nov-18 14:37 33.148282 -116.131750 154 164ft 12kts
05-Nov-18 14:38 33.146855 -116.130940 56 164ft 0kts
05-Nov-18 14:39 33.146855 -116.130940 56 164ft 0kts
05-Nov-18 14:40 33.146855 -116.130940 56 164ft 0kts
05-Nov-18 14:41 33.146855 -116.130940 56 164ft 0kts
05-Nov-18 14:42 33.146697 -116.130455 135 164ft 11kts
05-Nov-18 14:43 33.145240 -116.126919 104 165ft 20kts
05-Nov-18 14:44 33.146458 -116.132808 285 164ft 66kts
05-Nov-18 14:45 33.140417 -116.153354 235 714ft 77kts
05-Nov-18 14:46 33.127917 -116.179076 241 1229ft 99kts
05-Nov-18 14:47 33.115647 -116.208421 243 1891ft 96kts
05-Nov-18 14:48 33.104433 -116.236571 245 2589ft 92kts
05-Nov-18 14:49 33.093742 -116.263913 246 3378ft 83kts
05-Nov-18 14:50 33.083019 -116.291627 247 3887ft 98kts
05-Nov-18 14:51 33.071264 -116.322253 248 4392ft 104kts
05-Nov-18 14:52 33.059198 -116.353602 248 4914ft 104kts
05-Nov-18 14:53 33.047161 -116.384792 249 5418ft 102kts
05-Nov-18 14:54 33.035425 -116.415123 250 5918ft 100kts
05-Nov-18 14:55 33.023643 -116.445621 250 6313ft 106kts
05-Nov-18 14:56 33.010922 -116.478608 250 6538ft 117kts
05-Nov-18 14:56 32.999252 -116.508904 250 6534ft 121kts
05-Nov-18 14:58 32.982810 -116.551377 250 6534ft 121kts
05-Nov-18 14:58 32.971038 -116.581704 249 6534ft 121kts
05-Nov-18 14:59 32.956816 -116.618315 249 6521ft 126kts
05-Nov-18 15:01 32.939122 -116.664022 249 5952ft 131kts
05-Nov-18 15:02 32.926542 -116.696642 248 5544ft 130kts
05-Nov-18 15:03 32.911455 -116.735423 248 5054ft 129kts
05-Nov-18 15:04 32.896389 -116.774049 247 4561ft 128kts
05-Nov-18 15:05 32.882708 -116.809010 247 4548ft 109kts
05-Nov-18 15:06 32.869389 -116.843000 247 4548ft 117kts
05-Nov-18 15:07 32.855692 -116.878011 247 4547ft 116kts
05-Nov-18 15:08 32.842046 -116.912851 246 4547ft 115kts
05-Nov-18 15:09 32.828575 -116.947209 245 4486ft 116kts
05-Nov-18 15:10 32.814779 -116.982501 244 3992ft 119kts
05-Nov-18 15:11 32.802477 -117.013931 243 3320ft 99kts
05-Nov-18 15:12 32.790915 -117.043306 242 2623ft 98kts
05-Nov-18 15:13 32.779237 -117.072790 243 2570ft 88kts
05-Nov-18 15:14 32.767624 -117.098026 232 2581ft 110kts
05-Nov-18 15:15 32.746849 -117.127440 226 1987ft 106kts
05-Nov-18 15:16 32.731911 -117.156558 240 867ft 100kts
05-Nov-18 15:17 32.731977 -117.182996 284 14ft 50kts
05-Nov-18 15:18 32.733097 -117.184170 38 16ft 0kts
05-Nov-18 15:19 32.733021 -117.182706 106 16ft 16kts
05-Nov-18 15:20 32.732163 -117.177906 66 20ft 10kts
05-Nov-18 15:21 32.732355 -117.177694 188 20ft 0kts
05-Nov-18 15:22 32.732355 -117.177694 188 20ft 0kts
05-Nov-18 15:23 32.732355 -117.177694 188 20ft 0kts
05-Nov-18 15:24 32.732355 -117.177694 188 20ft 0kts
05-Nov-18 15:25 32.732355 -117.177694 188 20ft 0kts
05-Nov-18 15:26 32.732355 -117.177694 188 20ft 0kts
05-Nov-18 15:27 32.732355 -117.177694 188 20ft 0kts
05-Nov-18 15:28 32.732355 -117.177694 188 20ft 0kts
05-Nov-18 15:29 32.732355 -117.177694 188 20ft 0kts
05-Nov-18 15:30 32.732355 -117.177694 188 20ft 0kts
05-Nov-18 15:31 32.732355 -117.177694 188 20ft 0kts
05-Nov-18 15:32 32.732355 -117.177694 188 20ft 0kts

Navigation Log

Ident Type
1. KSAN Airport
2. KSAN Airport